sensor_id;sensor_type;location;lat;lon;timestamp;P1;durP1;ratioP1;P2;durP2;ratioP2
15699;SDS011;7950;42.744;23.174;2022-09-03T00:00:11;8.33;;;5.90;;
15699;SDS011;7950;42.744;23.174;2022-09-03T00:02:43;6.43;;;5.83;;
15699;SDS011;7950;42.744;23.174;2022-09-03T00:05:17;6.20;;;5.50;;
15699;SDS011;7950;42.744;23.174;2022-09-03T00:07:55;6.33;;;5.73;;
15699;SDS011;7950;42.744;23.174;2022-09-03T00:10:36;6.40;;;5.67;;
15699;SDS011;7950;42.744;23.174;2022-09-03T00:13:13;6.03;;;5.43;;
15699;SDS011;7950;42.744;23.174;2022-09-03T00:15:46;6.10;;;5.50;;
15699;SDS011;7950;42.744;23.174;2022-09-03T00:18:19;6.73;;;6.03;;
15699;SDS011;7950;42.744;23.174;2022-09-03T00:20:53;6.53;;;5.60;;
15699;SDS011;7950;42.744;23.174;2022-09-03T00:23:29;6.70;;;6.00;;
15699;SDS011;7950;42.744;23.174;2022-09-03T00:26:13;6.20;;;5.60;;
15699;SDS011;7950;42.744;23.174;2022-09-03T00:28:53;6.40;;;5.70;;
15699;SDS011;7950;42.744;23.174;2022-09-03T00:31:30;5.83;;;5.23;;
15699;SDS011;7950;42.744;23.174;2022-09-03T00:34:06;5.77;;;5.00;;
15699;SDS011;7950;42.744;23.174;2022-09-03T00:36:44;5.90;;;5.30;;
15699;SDS011;7950;42.744;23.174;2022-09-03T00:39:13;6.90;;;5.27;;
15699;SDS011;7950;42.744;23.174;2022-09-03T00:41:54;5.30;;;4.80;;
15699;SDS011;7950;42.744;23.174;2022-09-03T00:44:47;6.53;;;5.30;;
15699;SDS011;7950;42.744;23.174;2022-09-03T00:47:44;6.27;;;5.30;;
15699;SDS011;7950;42.744;23.174;2022-09-03T00:50:29;5.77;;;5.23;;
15699;SDS011;7950;42.744;23.174;2022-09-03T00:53:12;6.43;;;5.83;;
15699;SDS011;7950;42.744;23.174;2022-09-03T00:55:51;6.67;;;6.07;;
15699;SDS011;7950;42.744;23.174;2022-09-03T00:58:35;7.13;;;5.80;;
15699;SDS011;7950;42.744;23.174;2022-09-03T01:01:24;7.90;;;6.30;;
15699;SDS011;7950;42.744;23.174;2022-09-03T01:04:05;8.83;;;6.30;;
15699;SDS011;7950;42.744;23.174;2022-09-03T01:06:52;7.37;;;6.40;;
15699;SDS011;7950;42.744;23.174;2022-09-03T01:09:42;7.50;;;6.70;;
15699;SDS011;7950;42.744;23.174;2022-09-03T01:12:24;8.70;;;6.20;;
15699;SDS011;7950;42.744;23.174;2022-09-03T01:15:08;8.50;;;6.70;;
15699;SDS011;7950;42.744;23.174;2022-09-03T01:17:53;7.13;;;5.67;;
15699;SDS011;7950;42.744;23.174;2022-09-03T01:20:36;6.40;;;5.80;;
15699;SDS011;7950;42.744;23.174;2022-09-03T01:23:55;7.07;;;6.37;;
15699;SDS011;7950;42.744;23.174;2022-09-03T01:27:06;6.73;;;6.00;;
15699;SDS011;7950;42.744;23.174;2022-09-03T01:29:54;9.53;;;6.77;;
15699;SDS011;7950;42.744;23.174;2022-09-03T01:32:32;8.27;;;6.97;;
15699;SDS011;7950;42.744;23.174;2022-09-03T01:35:16;7.60;;;6.80;;
15699;SDS011;7950;42.744;23.174;2022-09-03T01:40:56;7.57;;;6.37;;
15699;SDS011;7950;42.744;23.174;2022-09-03T01:43:56;8.23;;;6.63;;
15699;SDS011;7950;42.744;23.174;2022-09-03T01:46:40;7.53;;;6.37;;
15699;SDS011;7950;42.744;23.174;2022-09-03T01:49:14;8.93;;;6.53;;
15699;SDS011;7950;42.744;23.174;2022-09-03T01:52:02;8.40;;;6.90;;
15699;SDS011;7950;42.744;23.174;2022-09-03T01:54:44;8.17;;;6.80;;
15699;SDS011;7950;42.744;23.174;2022-09-03T01:57:38;8.50;;;6.73;;
15699;SDS011;7950;42.744;23.174;2022-09-03T02:00:15;8.00;;;6.50;;
15699;SDS011;7950;42.744;23.174;2022-09-03T02:02:48;8.07;;;7.03;;
15699;SDS011;7950;42.744;23.174;2022-09-03T02:05:19;8.43;;;7.03;;
15699;SDS011;7950;42.744;23.174;2022-09-03T02:07:55;8.77;;;7.27;;
15699;SDS011;7950;42.744;23.174;2022-09-03T02:10:27;7.97;;;6.77;;
15699;SDS011;7950;42.744;23.174;2022-09-03T02:13:01;8.90;;;7.30;;
15699;SDS011;7950;42.744;23.174;2022-09-03T02:15:36;8.00;;;6.87;;
15699;SDS011;7950;42.744;23.174;2022-09-03T02:18:14;8.13;;;7.30;;
15699;SDS011;7950;42.744;23.174;2022-09-03T02:20:46;8.87;;;7.53;;
15699;SDS011;7950;42.744;23.174;2022-09-03T02:23:18;8.90;;;8.00;;
15699;SDS011;7950;42.744;23.174;2022-09-03T02:25:54;8.57;;;7.53;;
15699;SDS011;7950;42.744;23.174;2022-09-03T02:28:25;8.03;;;7.07;;
15699;SDS011;7950;42.744;23.174;2022-09-03T02:30:55;10.73;;;7.57;;
15699;SDS011;7950;42.744;23.174;2022-09-03T02:33:26;9.67;;;7.57;;
15699;SDS011;7950;42.744;23.174;2022-09-03T02:35:54;10.20;;;7.20;;
15699;SDS011;7950;42.744;23.174;2022-09-03T02:38:23;8.50;;;7.40;;
15699;SDS011;7950;42.744;23.174;2022-09-03T02:40:53;10.77;;;7.47;;
15699;SDS011;7950;42.744;23.174;2022-09-03T02:43:23;7.70;;;6.60;;
15699;SDS011;7950;42.744;23.174;2022-09-03T02:46:01;9.10;;;7.60;;
15699;SDS011;7950;42.744;23.174;2022-09-03T02:48:35;9.63;;;7.13;;
15699;SDS011;7950;42.744;23.174;2022-09-03T02:51:04;10.67;;;7.23;;
15699;SDS011;7950;42.744;23.174;2022-09-03T02:53:40;8.23;;;7.23;;
15699;SDS011;7950;42.744;23.174;2022-09-03T02:56:09;9.07;;;7.57;;
15699;SDS011;7950;42.744;23.174;2022-09-03T03:01:34;7.47;;;6.77;;
15699;SDS011;7950;42.744;23.174;2022-09-03T03:04:04;8.27;;;7.10;;
15699;SDS011;7950;42.744;23.174;2022-09-03T03:06:33;9.37;;;7.77;;
15699;SDS011;7950;42.744;23.174;2022-09-03T03:09:02;9.20;;;7.10;;
15699;SDS011;7950;42.744;23.174;2022-09-03T03:11:31;7.83;;;7.03;;
15699;SDS011;7950;42.744;23.174;2022-09-03T03:14:00;9.90;;;7.60;;
15699;SDS011;7950;42.744;23.174;2022-09-03T03:16:29;9.00;;;7.40;;
15699;SDS011;7950;42.744;23.174;2022-09-03T03:18:58;8.40;;;7.20;;
15699;SDS011;7950;42.744;23.174;2022-09-03T03:21:28;10.07;;;7.27;;
15699;SDS011;7950;42.744;23.174;2022-09-03T03:23:57;10.13;;;7.40;;
15699;SDS011;7950;42.744;23.174;2022-09-03T03:26:27;7.23;;;6.53;;
15699;SDS011;7950;42.744;23.174;2022-09-03T03:28:56;7.47;;;6.60;;
15699;SDS011;7950;42.744;23.174;2022-09-03T03:31:30;7.93;;;6.90;;
15699;SDS011;7950;42.744;23.174;2022-09-03T03:34:00;7.90;;;6.37;;
15699;SDS011;7950;42.744;23.174;2022-09-03T03:36:32;8.23;;;7.10;;
15699;SDS011;7950;42.744;23.174;2022-09-03T03:39:02;8.90;;;7.37;;
15699;SDS011;7950;42.744;23.174;2022-09-03T03:41:32;7.93;;;6.70;;
15699;SDS011;7950;42.744;23.174;2022-09-03T03:44:04;7.70;;;6.77;;
15699;SDS011;7950;42.744;23.174;2022-09-03T03:46:35;9.30;;;7.20;;
15699;SDS011;7950;42.744;23.174;2022-09-03T03:49:06;7.77;;;6.63;;
15699;SDS011;7950;42.744;23.174;2022-09-03T03:51:38;9.67;;;7.40;;
15699;SDS011;7950;42.744;23.174;2022-09-03T03:54:06;9.17;;;7.37;;
15699;SDS011;7950;42.744;23.174;2022-09-03T03:56:38;9.47;;;7.80;;
15699;SDS011;7950;42.744;23.174;2022-09-03T03:59:06;8.97;;;7.73;;
15699;SDS011;7950;42.744;23.174;2022-09-03T04:01:35;9.30;;;8.00;;
15699;SDS011;7950;42.744;23.174;2022-09-03T04:04:04;8.00;;;7.20;;
15699;SDS011;7950;42.744;23.174;2022-09-03T04:06:32;8.87;;;7.67;;
15699;SDS011;7950;42.744;23.174;2022-09-03T04:09:02;10.77;;;7.67;;
15699;SDS011;7950;42.744;23.174;2022-09-03T04:11:31;11.37;;;7.87;;
15699;SDS011;7950;42.744;23.174;2022-09-03T04:14:01;9.03;;;7.67;;
15699;SDS011;7950;42.744;23.174;2022-09-03T04:16:30;10.37;;;7.67;;
15699;SDS011;7950;42.744;23.174;2022-09-03T04:18:59;9.87;;;7.60;;
15699;SDS011;7950;42.744;23.174;2022-09-03T04:21:28;8.93;;;7.73;;
15699;SDS011;7950;42.744;23.174;2022-09-03T04:23:57;8.40;;;7.43;;
15699;SDS011;7950;42.744;23.174;2022-09-03T04:29:21;9.87;;;8.20;;
15699;SDS011;7950;42.744;23.174;2022-09-03T04:31:50;9.30;;;8.00;;
15699;SDS011;7950;42.744;23.174;2022-09-03T04:34:36;9.70;;;7.43;;
15699;SDS011;7950;42.744;23.174;2022-09-03T04:37:04;9.27;;;7.90;;
15699;SDS011;7950;42.744;23.174;2022-09-03T04:39:33;9.20;;;7.80;;
15699;SDS011;7950;42.744;23.174;2022-09-03T04:42:03;9.63;;;7.67;;
15699;SDS011;7950;42.744;23.174;2022-09-03T04:44:32;9.87;;;7.50;;
15699;SDS011;7950;42.744;23.174;2022-09-03T04:58:14;8.83;;;7.43;;
15699;SDS011;7950;42.744;23.174;2022-09-03T05:00:42;8.43;;;7.50;;
15699;SDS011;7950;42.744;23.174;2022-09-03T05:03:11;8.07;;;7.27;;
15699;SDS011;7950;42.744;23.174;2022-09-03T05:05:39;8.17;;;7.27;;
15699;SDS011;7950;42.744;23.174;2022-09-03T05:08:08;8.07;;;7.27;;
15699;SDS011;7950;42.744;23.174;2022-09-03T05:10:36;7.90;;;7.10;;
15699;SDS011;7950;42.744;23.174;2022-09-03T05:13:05;7.20;;;6.30;;
15699;SDS011;7950;42.744;23.174;2022-09-03T05:15:35;7.70;;;6.70;;
15699;SDS011;7950;42.744;23.174;2022-09-03T05:18:03;7.77;;;6.63;;
15699;SDS011;7950;42.744;23.174;2022-09-03T05:20:32;9.83;;;7.20;;
15699;SDS011;7950;42.744;23.174;2022-09-03T05:23:01;7.20;;;6.50;;
15699;SDS011;7950;42.744;23.174;2022-09-03T05:25:30;7.53;;;6.67;;
15699;SDS011;7950;42.744;23.174;2022-09-03T05:28:08;7.27;;;6.57;;
15699;SDS011;7950;42.744;23.174;2022-09-03T05:30:38;7.53;;;6.83;;
15699;SDS011;7950;42.744;23.174;2022-09-03T05:33:06;7.47;;;6.67;;
15699;SDS011;7950;42.744;23.174;2022-09-03T05:35:35;7.80;;;7.00;;
15699;SDS011;7950;42.744;23.174;2022-09-03T05:38:05;9.27;;;7.50;;
15699;SDS011;7950;42.744;23.174;2022-09-03T05:40:34;9.87;;;7.00;;
15699;SDS011;7950;42.744;23.174;2022-09-03T05:43:03;9.63;;;7.97;;
15699;SDS011;7950;42.744;23.174;2022-09-03T05:45:34;9.07;;;7.80;;
15699;SDS011;7950;42.744;23.174;2022-09-03T05:48:04;8.43;;;7.53;;
15699;SDS011;7950;42.744;23.174;2022-09-03T05:50:32;8.47;;;7.57;;
15699;SDS011;7950;42.744;23.174;2022-09-03T05:53:01;8.33;;;7.23;;
15699;SDS011;7950;42.744;23.174;2022-09-03T05:55:29;9.13;;;7.97;;
15699;SDS011;7950;42.744;23.174;2022-09-03T05:57:58;8.00;;;7.20;;
15699;SDS011;7950;42.744;23.174;2022-09-03T06:00:27;9.93;;;7.93;;
15699;SDS011;7950;42.744;23.174;2022-09-03T06:02:55;8.63;;;7.00;;
15699;SDS011;7950;42.744;23.174;2022-09-03T06:05:25;9.07;;;7.80;;
15699;SDS011;7950;42.744;23.174;2022-09-03T06:07:54;8.37;;;7.47;;
15699;SDS011;7950;42.744;23.174;2022-09-03T06:10:22;9.07;;;7.10;;
15699;SDS011;7950;42.744;23.174;2022-09-03T06:12:57;9.73;;;7.93;;
15699;SDS011;7950;42.744;23.174;2022-09-03T06:15:29;9.60;;;7.37;;
15699;SDS011;7950;42.744;23.174;2022-09-03T06:17:58;7.77;;;6.97;;
15699;SDS011;7950;42.744;23.174;2022-09-03T06:20:28;8.13;;;6.67;;
15699;SDS011;7950;42.744;23.174;2022-09-03T06:23:02;7.60;;;6.90;;
15699;SDS011;7950;42.744;23.174;2022-09-03T06:25:31;7.93;;;6.87;;
15699;SDS011;7950;42.744;23.174;2022-09-03T06:27:59;8.00;;;7.20;;
15699;SDS011;7950;42.744;23.174;2022-09-03T06:30:28;7.73;;;6.80;;
15699;SDS011;7950;42.744;23.174;2022-09-03T06:32:57;8.87;;;7.83;;
15699;SDS011;7950;42.744;23.174;2022-09-03T06:35:26;8.57;;;7.40;;
15699;SDS011;7950;42.744;23.174;2022-09-03T06:38:08;8.93;;;7.37;;
15699;SDS011;7950;42.744;23.174;2022-09-03T06:40:37;7.83;;;7.13;;
15699;SDS011;7950;42.744;23.174;2022-09-03T06:43:06;7.53;;;6.83;;
15699;SDS011;7950;42.744;23.174;2022-09-03T06:45:36;8.50;;;7.33;;
15699;SDS011;7950;42.744;23.174;2022-09-03T06:48:04;8.20;;;7.50;;
15699;SDS011;7950;42.744;23.174;2022-09-03T06:50:34;9.67;;;7.10;;
15699;SDS011;7950;42.744;23.174;2022-09-03T06:53:03;9.67;;;7.67;;
15699;SDS011;7950;42.744;23.174;2022-09-03T06:55:32;7.63;;;6.93;;
15699;SDS011;7950;42.744;23.174;2022-09-03T06:58:00;7.87;;;7.07;;
15699;SDS011;7950;42.744;23.174;2022-09-03T07:00:29;8.50;;;7.37;;
15699;SDS011;7950;42.744;23.174;2022-09-03T07:03:01;8.03;;;7.23;;
15699;SDS011;7950;42.744;23.174;2022-09-03T07:05:31;7.00;;;6.10;;
15699;SDS011;7950;42.744;23.174;2022-09-03T07:08:01;7.70;;;6.90;;
15699;SDS011;7950;42.744;23.174;2022-09-03T07:10:30;7.17;;;6.47;;
15699;SDS011;7950;42.744;23.174;2022-09-03T07:13:02;7.80;;;7.07;;
15699;SDS011;7950;42.744;23.174;2022-09-03T07:15:32;8.10;;;7.20;;
15699;SDS011;7950;42.744;23.174;2022-09-03T07:18:15;7.83;;;7.10;;
15699;SDS011;7950;42.744;23.174;2022-09-03T07:20:43;7.97;;;7.03;;
15699;SDS011;7950;42.744;23.174;2022-09-03T07:23:13;7.37;;;6.67;;
15699;SDS011;7950;42.744;23.174;2022-09-03T07:25:42;7.20;;;6.50;;
15699;SDS011;7950;42.744;23.174;2022-09-03T07:28:10;7.47;;;6.77;;
15699;SDS011;7950;42.744;23.174;2022-09-03T07:30:39;7.27;;;6.57;;
15699;SDS011;7950;42.744;23.174;2022-09-03T07:36:02;7.00;;;6.30;;
15699;SDS011;7950;42.744;23.174;2022-09-03T07:38:34;6.77;;;6.17;;
15699;SDS011;7950;42.744;23.174;2022-09-03T07:41:04;6.23;;;5.70;;
15699;SDS011;7950;42.744;23.174;2022-09-03T07:43:35;6.50;;;5.83;;
15699;SDS011;7950;42.744;23.174;2022-09-03T07:46:06;7.03;;;6.27;;
15699;SDS011;7950;42.744;23.174;2022-09-03T07:48:38;7.73;;;6.43;;
15699;SDS011;7950;42.744;23.174;2022-09-03T07:51:07;6.30;;;5.70;;
15699;SDS011;7950;42.744;23.174;2022-09-03T07:53:37;6.10;;;5.53;;
15699;SDS011;7950;42.744;23.174;2022-09-03T07:56:06;5.70;;;5.20;;
15699;SDS011;7950;42.744;23.174;2022-09-03T07:58:37;5.83;;;5.27;;
15699;SDS011;7950;42.744;23.174;2022-09-03T08:01:08;6.97;;;5.13;;
15699;SDS011;7950;42.744;23.174;2022-09-03T08:03:41;6.10;;;5.50;;
15699;SDS011;7950;42.744;23.174;2022-09-03T08:06:13;6.07;;;5.57;;
15699;SDS011;7950;42.744;23.174;2022-09-03T08:08:46;6.70;;;5.63;;
15699;SDS011;7950;42.744;23.174;2022-09-03T08:11:16;7.17;;;6.47;;
15699;SDS011;7950;42.744;23.174;2022-09-03T08:16:45;6.80;;;6.20;;
15699;SDS011;7950;42.744;23.174;2022-09-03T08:19:14;6.60;;;6.00;;
15699;SDS011;7950;42.744;23.174;2022-09-03T08:21:44;6.37;;;5.77;;
15699;SDS011;7950;42.744;23.174;2022-09-03T08:24:16;6.93;;;5.90;;
15699;SDS011;7950;42.744;23.174;2022-09-03T08:26:47;6.07;;;5.50;;
15699;SDS011;7950;42.744;23.174;2022-09-03T08:29:18;6.40;;;5.80;;
15699;SDS011;7950;42.744;23.174;2022-09-03T08:31:47;6.60;;;6.00;;
15699;SDS011;7950;42.744;23.174;2022-09-03T08:34:16;6.30;;;5.70;;
15699;SDS011;7950;42.744;23.174;2022-09-03T08:36:45;6.10;;;5.50;;
15699;SDS011;7950;42.744;23.174;2022-09-03T08:39:17;8.13;;;5.97;;
15699;SDS011;7950;42.744;23.174;2022-09-03T08:44:46;6.10;;;5.37;;
15699;SDS011;7950;42.744;23.174;2022-09-03T08:47:22;5.47;;;4.97;;
15699;SDS011;7950;42.744;23.174;2022-09-03T08:50:00;5.07;;;4.57;;
15699;SDS011;7950;42.744;23.174;2022-09-03T08:52:40;5.50;;;4.57;;
15699;SDS011;7950;42.744;23.174;2022-09-03T08:55:19;5.47;;;4.97;;
15699;SDS011;7950;42.744;23.174;2022-09-03T08:57:54;6.10;;;4.50;;
15699;SDS011;7950;42.744;23.174;2022-09-03T09:00:35;6.90;;;4.63;;
15699;SDS011;7950;42.744;23.174;2022-09-03T09:03:22;6.00;;;5.07;;
15699;SDS011;7950;42.744;23.174;2022-09-03T09:06:10;5.87;;;5.37;;
15699;SDS011;7950;42.744;23.174;2022-09-03T09:08:52;5.77;;;5.20;;
15699;SDS011;7950;42.744;23.174;2022-09-03T09:11:34;6.40;;;5.80;;
15699;SDS011;7950;42.744;23.174;2022-09-03T09:14:22;5.90;;;5.30;;
15699;SDS011;7950;42.744;23.174;2022-09-03T09:17:10;6.90;;;6.30;;
15699;SDS011;7950;42.744;23.174;2022-09-03T09:20:09;6.53;;;5.93;;
15699;SDS011;7950;42.744;23.174;2022-09-03T09:22:51;6.17;;;5.47;;
15699;SDS011;7950;42.744;23.174;2022-09-03T09:25:27;6.00;;;5.20;;
15699;SDS011;7950;42.744;23.174;2022-09-03T09:28:00;8.93;;;5.80;;
15699;SDS011;7950;42.744;23.174;2022-09-03T09:30:32;7.83;;;6.67;;
15699;SDS011;7950;42.744;23.174;2022-09-03T09:33:01;5.67;;;5.17;;
15699;SDS011;7950;42.744;23.174;2022-09-03T09:35:30;7.87;;;5.30;;
15699;SDS011;7950;42.744;23.174;2022-09-03T09:37:59;10.23;;;5.53;;
15699;SDS011;7950;42.744;23.174;2022-09-03T09:40:29;5.87;;;5.23;;
15699;SDS011;7950;42.744;23.174;2022-09-03T09:43:06;8.70;;;5.70;;
15699;SDS011;7950;42.744;23.174;2022-09-03T09:45:42;5.60;;;5.10;;
15699;SDS011;7950;42.744;23.174;2022-09-03T09:48:15;5.70;;;5.20;;
15699;SDS011;7950;42.744;23.174;2022-09-03T09:50:49;7.90;;;5.73;;
15699;SDS011;7950;42.744;23.174;2022-09-03T09:53:32;6.50;;;5.90;;
15699;SDS011;7950;42.744;23.174;2022-09-03T09:56:01;7.67;;;5.70;;
15699;SDS011;7950;42.744;23.174;2022-09-03T09:58:32;5.67;;;5.07;;
15699;SDS011;7950;42.744;23.174;2022-09-03T10:01:03;5.77;;;4.90;;
15699;SDS011;7950;42.744;23.174;2022-09-03T10:03:47;8.37;;;5.00;;
15699;SDS011;7950;42.744;23.174;2022-09-03T10:06:22;6.53;;;5.37;;
15699;SDS011;7950;42.744;23.174;2022-09-03T10:09:11;6.37;;;4.80;;
15699;SDS011;7950;42.744;23.174;2022-09-03T10:11:43;5.50;;;5.00;;
15699;SDS011;7950;42.744;23.174;2022-09-03T10:14:19;5.63;;;4.67;;
15699;SDS011;7950;42.744;23.174;2022-09-03T10:17:00;5.90;;;4.70;;
15699;SDS011;7950;42.744;23.174;2022-09-03T10:19:39;5.27;;;4.67;;
15699;SDS011;7950;42.744;23.174;2022-09-03T10:22:39;4.93;;;4.53;;
15699;SDS011;7950;42.744;23.174;2022-09-03T10:25:24;4.80;;;4.40;;
15699;SDS011;7950;42.744;23.174;2022-09-03T10:28:05;5.23;;;4.77;;
15699;SDS011;7950;42.744;23.174;2022-09-03T10:30:47;5.13;;;4.73;;
15699;SDS011;7950;42.744;23.174;2022-09-03T10:33:31;5.87;;;5.17;;
15699;SDS011;7950;42.744;23.174;2022-09-03T10:36:10;5.50;;;5.10;;
15699;SDS011;7950;42.744;23.174;2022-09-03T10:38:47;6.77;;;6.17;;
15699;SDS011;7950;42.744;23.174;2022-09-03T10:41:25;5.60;;;5.20;;
15699;SDS011;7950;42.744;23.174;2022-09-03T10:44:12;5.40;;;4.93;;
15699;SDS011;7950;42.744;23.174;2022-09-03T10:47:06;5.57;;;5.10;;
15699;SDS011;7950;42.744;23.174;2022-09-03T10:49:58;5.10;;;4.60;;
15699;SDS011;7950;42.744;23.174;2022-09-03T10:52:48;5.23;;;4.83;;
15699;SDS011;7950;42.744;23.174;2022-09-03T10:55:40;5.63;;;5.23;;
15699;SDS011;7950;42.744;23.174;2022-09-03T10:58:31;8.10;;;7.40;;
15699;SDS011;7950;42.744;23.174;2022-09-03T11:01:21;5.10;;;4.70;;
15699;SDS011;7950;42.744;23.174;2022-09-03T11:04:09;5.33;;;4.73;;
15699;SDS011;7950;42.744;23.174;2022-09-03T11:07:04;6.27;;;5.77;;
15699;SDS011;7950;42.744;23.174;2022-09-03T11:09:37;5.83;;;4.80;;
15699;SDS011;7950;42.744;23.174;2022-09-03T11:12:11;5.57;;;5.10;;
15699;SDS011;7950;42.744;23.174;2022-09-03T11:14:50;5.37;;;4.90;;
15699;SDS011;7950;42.744;23.174;2022-09-03T11:17:31;5.00;;;4.60;;
15699;SDS011;7950;42.744;23.174;2022-09-03T11:20:09;5.10;;;4.60;;
15699;SDS011;7950;42.744;23.174;2022-09-03T11:22:45;6.07;;;5.57;;
15699;SDS011;7950;42.744;23.174;2022-09-03T11:25:18;4.43;;;4.03;;
15699;SDS011;7950;42.744;23.174;2022-09-03T11:27:53;5.10;;;4.70;;
15699;SDS011;7950;42.744;23.174;2022-09-03T11:30:39;4.90;;;4.50;;
15699;SDS011;7950;42.744;23.174;2022-09-03T11:33:31;4.87;;;4.47;;
15699;SDS011;7950;42.744;23.174;2022-09-03T11:36:09;5.07;;;4.67;;
15699;SDS011;7950;42.744;23.174;2022-09-03T11:38:38;5.37;;;4.87;;
15699;SDS011;7950;42.744;23.174;2022-09-03T11:41:12;6.67;;;5.53;;
15699;SDS011;7950;42.744;23.174;2022-09-03T11:43:49;6.50;;;5.90;;
15699;SDS011;7950;42.744;23.174;2022-09-03T11:46:26;7.00;;;5.80;;
15699;SDS011;7950;42.744;23.174;2022-09-03T11:49:08;6.20;;;5.50;;
15699;SDS011;7950;42.744;23.174;2022-09-03T11:51:40;5.20;;;4.80;;
15699;SDS011;7950;42.744;23.174;2022-09-03T11:54:22;6.87;;;6.27;;
15699;SDS011;7950;42.744;23.174;2022-09-03T11:57:03;6.77;;;6.17;;
15699;SDS011;7950;42.744;23.174;2022-09-03T11:59:38;6.23;;;5.63;;
15699;SDS011;7950;42.744;23.174;2022-09-03T12:02:19;6.00;;;5.40;;
15699;SDS011;7950;42.744;23.174;2022-09-03T12:05:02;7.23;;;5.60;;
15699;SDS011;7950;42.744;23.174;2022-09-03T12:07:58;5.57;;;5.00;;
15699;SDS011;7950;42.744;23.174;2022-09-03T12:11:04;6.33;;;5.73;;
15699;SDS011;7950;42.744;23.174;2022-09-03T12:13:50;5.17;;;4.77;;
15699;SDS011;7950;42.744;23.174;2022-09-03T12:19:36;5.27;;;4.77;;
15699;SDS011;7950;42.744;23.174;2022-09-03T12:22:14;4.87;;;4.40;;
15699;SDS011;7950;42.744;23.174;2022-09-03T12:24:47;5.57;;;5.03;;
15699;SDS011;7950;42.744;23.174;2022-09-03T12:27:17;5.37;;;4.90;;
15699;SDS011;7950;42.744;23.174;2022-09-03T12:29:54;5.83;;;5.07;;
15699;SDS011;7950;42.744;23.174;2022-09-03T12:32:26;5.83;;;5.23;;
15699;SDS011;7950;42.744;23.174;2022-09-03T12:35:08;5.90;;;5.40;;
15699;SDS011;7950;42.744;23.174;2022-09-03T12:37:59;4.67;;;4.03;;
15699;SDS011;7950;42.744;23.174;2022-09-03T12:40:40;4.90;;;4.50;;
15699;SDS011;7950;42.744;23.174;2022-09-03T12:43:30;5.70;;;5.10;;
15699;SDS011;7950;42.744;23.174;2022-09-03T12:46:03;5.20;;;4.80;;
15699;SDS011;7950;42.744;23.174;2022-09-03T12:48:45;6.43;;;5.27;;
15699;SDS011;7950;42.744;23.174;2022-09-03T12:51:41;4.00;;;3.70;;
15699;SDS011;7950;42.744;23.174;2022-09-03T12:54:15;5.07;;;4.60;;
15699;SDS011;7950;42.744;23.174;2022-09-03T12:56:47;12.17;;;7.63;;
15699;SDS011;7950;42.744;23.174;2022-09-03T12:59:23;11.30;;;8.93;;
15699;SDS011;7950;42.744;23.174;2022-09-03T13:01:59;6.10;;;5.23;;
15699;SDS011;7950;42.744;23.174;2022-09-03T13:04:39;4.63;;;4.23;;
15699;SDS011;7950;42.744;23.174;2022-09-03T13:07:11;4.60;;;4.20;;
15699;SDS011;7950;42.744;23.174;2022-09-03T13:09:50;4.60;;;4.20;;
15699;SDS011;7950;42.744;23.174;2022-09-03T13:12:31;5.23;;;3.87;;
15699;SDS011;7950;42.744;23.174;2022-09-03T13:15:15;4.90;;;4.50;;
15699;SDS011;7950;42.744;23.174;2022-09-03T13:17:55;5.30;;;3.90;;
15699;SDS011;7950;42.744;23.174;2022-09-03T13:21:01;4.53;;;4.13;;
15699;SDS011;7950;42.744;23.174;2022-09-03T13:26:55;4.90;;;4.50;;
15699;SDS011;7950;42.744;23.174;2022-09-03T13:29:46;5.77;;;4.00;;
15699;SDS011;7950;42.744;23.174;2022-09-03T13:32:35;4.87;;;4.37;;
15699;SDS011;7950;42.744;23.174;2022-09-03T13:35:19;4.40;;;3.50;;
15699;SDS011;7950;42.744;23.174;2022-09-03T13:38:03;3.43;;;3.13;;
15699;SDS011;7950;42.744;23.174;2022-09-03T13:40:41;4.50;;;4.10;;
15699;SDS011;7950;42.744;23.174;2022-09-03T13:43:19;3.83;;;3.53;;
15699;SDS011;7950;42.744;23.174;2022-09-03T13:46:00;4.03;;;3.70;;
15699;SDS011;7950;42.744;23.174;2022-09-03T13:48:35;3.53;;;3.23;;
15699;SDS011;7950;42.744;23.174;2022-09-03T13:51:25;3.40;;;3.10;;
15699;SDS011;7950;42.744;23.174;2022-09-03T13:53:59;3.43;;;3.17;;
15699;SDS011;7950;42.744;23.174;2022-09-03T13:56:53;3.17;;;2.90;;
15699;SDS011;7950;42.744;23.174;2022-09-03T13:59:32;3.10;;;2.80;;
15699;SDS011;7950;42.744;23.174;2022-09-03T14:02:19;3.60;;;3.30;;
15699;SDS011;7950;42.744;23.174;2022-09-03T14:05:01;3.83;;;3.37;;
15699;SDS011;7950;42.744;23.174;2022-09-03T14:07:47;3.23;;;2.93;;
15699;SDS011;7950;42.744;23.174;2022-09-03T14:10:37;3.43;;;3.13;;
15699;SDS011;7950;42.744;23.174;2022-09-03T14:13:23;3.23;;;2.93;;
15699;SDS011;7950;42.744;23.174;2022-09-03T14:16:10;3.50;;;3.20;;
15699;SDS011;7950;42.744;23.174;2022-09-03T14:18:53;3.83;;;2.90;;
15699;SDS011;7950;42.744;23.174;2022-09-03T14:21:29;3.10;;;2.87;;
15699;SDS011;7950;42.744;23.174;2022-09-03T14:24:07;3.50;;;3.20;;
15699;SDS011;7950;42.744;23.174;2022-09-03T14:26:50;5.00;;;3.23;;
15699;SDS011;7950;42.744;23.174;2022-09-03T14:29:23;3.63;;;3.27;;
15699;SDS011;7950;42.744;23.174;2022-09-03T14:38:26;4.20;;;3.40;;
15699;SDS011;7950;42.744;23.174;2022-09-03T14:44:51;4.53;;;3.90;;
15699;SDS011;7950;42.744;23.174;2022-09-03T14:47:53;3.80;;;3.50;;
15699;SDS011;7950;42.744;23.174;2022-09-03T14:50:43;3.80;;;3.50;;
15699;SDS011;7950;42.744;23.174;2022-09-03T14:56:53;3.90;;;3.50;;
15699;SDS011;7950;42.744;23.174;2022-09-03T14:59:54;4.07;;;3.67;;
15699;SDS011;7950;42.744;23.174;2022-09-03T15:09:02;5.07;;;4.23;;
15699;SDS011;7950;42.744;23.174;2022-09-03T15:11:48;5.43;;;4.73;;
15699;SDS011;7950;42.744;23.174;2022-09-03T15:14:24;4.77;;;4.20;;
15699;SDS011;7950;42.744;23.174;2022-09-03T15:17:04;4.87;;;4.20;;
15699;SDS011;7950;42.744;23.174;2022-09-03T15:20:02;4.90;;;4.10;;
15699;SDS011;7950;42.744;23.174;2022-09-03T15:23:01;4.77;;;4.10;;
15699;SDS011;7950;42.744;23.174;2022-09-03T15:25:53;4.30;;;4.00;;
15699;SDS011;7950;42.744;23.174;2022-09-03T15:28:54;4.50;;;4.10;;
15699;SDS011;7950;42.744;23.174;2022-09-03T15:31:46;4.40;;;4.00;;
15699;SDS011;7950;42.744;23.174;2022-09-03T15:34:39;4.60;;;4.20;;
15699;SDS011;7950;42.744;23.174;2022-09-03T15:37:26;4.30;;;4.00;;
15699;SDS011;7950;42.744;23.174;2022-09-03T15:40:04;4.50;;;4.10;;
15699;SDS011;7950;42.744;23.174;2022-09-03T15:42:39;4.67;;;4.27;;
15699;SDS011;7950;42.744;23.174;2022-09-03T15:45:15;5.50;;;5.00;;
15699;SDS011;7950;42.744;23.174;2022-09-03T15:47:55;6.30;;;5.67;;
15699;SDS011;7950;42.744;23.174;2022-09-03T15:50:47;5.97;;;5.37;;
15699;SDS011;7950;42.744;23.174;2022-09-03T15:53:32;5.20;;;4.70;;
15699;SDS011;7950;42.744;23.174;2022-09-03T15:56:20;5.10;;;4.57;;
15699;SDS011;7950;42.744;23.174;2022-09-03T15:58:57;5.50;;;5.00;;
15699;SDS011;7950;42.744;23.174;2022-09-03T16:06:24;5.30;;;4.80;;
15699;SDS011;7950;42.744;23.174;2022-09-03T16:09:07;5.50;;;5.00;;
15699;SDS011;7950;42.744;23.174;2022-09-03T16:23:51;6.70;;;6.10;;
15699;SDS011;7950;42.744;23.174;2022-09-03T16:26:26;6.70;;;6.00;;
15699;SDS011;7950;42.744;23.174;2022-09-03T16:38:23;6.93;;;6.23;;
15699;SDS011;7950;42.744;23.174;2022-09-03T16:45:23;7.67;;;6.10;;
15699;SDS011;7950;42.744;23.174;2022-09-03T16:48:07;7.43;;;6.37;;
15699;SDS011;7950;42.744;23.174;2022-09-03T16:55:22;7.37;;;6.50;;
15699;SDS011;7950;42.744;23.174;2022-09-03T17:07:12;7.10;;;6.40;;
15699;SDS011;7950;42.744;23.174;2022-09-03T17:14:18;7.70;;;6.90;;
15699;SDS011;7950;42.744;23.174;2022-09-03T17:17:40;7.67;;;6.63;;
15699;SDS011;7950;42.744;23.174;2022-09-03T17:20:32;8.17;;;6.90;;
15699;SDS011;7950;42.744;23.174;2022-09-03T17:32:44;8.20;;;6.77;;
15699;SDS011;7950;42.744;23.174;2022-09-03T17:40:33;10.50;;;8.30;;
15699;SDS011;7950;42.744;23.174;2022-09-03T18:02:21;8.73;;;7.17;;
15699;SDS011;7950;42.744;23.174;2022-09-03T18:05:00;9.33;;;7.53;;